Time;durP1;ratioP1;P1;durP2;ratioP2;P2;SDS_P1;SDS_P2;PMS_P1;PMS_P2;Temp;Humidity;BMP_temperature;BMP_pressure;BME280_temperature;BME280_humidity;BME280_pressure;Samples;Min_cycle;Max_cycle;Signal;HPM_P1;HPM_P2
2021/07/25 00:00:08;;;;;;;6.57;5.72;;;28.80;59.10;;;;;;5028576;28;20049;-62
2021/07/25 00:02:54;;;;;;;5.95;5.55;;;28.80;59.20;;;;;;5032612;28;20057;-62
2021/07/25 00:05:20;;;;;;;6.68;5.80;;;28.80;59.10;;;;;;5027889;28;20053;-62
2021/07/25 00:07:46;;;;;;;5.35;4.95;;;28.80;59.10;;;;;;5027983;28;20547;-61
2021/07/25 00:10:12;;;;;;;5.35;4.97;;;28.80;59.10;;;;;;5027921;28;20128;-61
2021/07/25 00:12:38;;;;;;;6.35;5.75;;;28.80;59.10;;;;;;5028027;28;20061;-61
2021/07/25 00:15:05;;;;;;;6.25;5.75;;;28.80;59.10;;;;;;5027743;28;20085;-62
2021/07/25 00:17:31;;;;;;;5.43;5.03;;;28.80;59.10;;;;;;5027863;28;20499;-61
2021/07/25 00:19:57;;;;;;;7.60;5.32;;;28.80;59.10;;;;;;5028173;28;20145;-61
2021/07/25 00:22:23;;;;;;;5.50;5.10;;;28.80;59.10;;;;;;5028015;28;20136;-62
2021/07/25 00:24:52;;;;;;;6.93;5.55;;;28.80;59.00;;;;;;5027776;28;20148;-61
2021/07/25 00:27:26;;;;;;;7.45;5.88;;;28.80;59.10;;;;;;5027662;28;20053;-62
2021/07/25 00:29:53;;;;;;;5.47;5.15;;;28.80;59.00;;;;;;5026583;28;20168;-61
2021/07/25 00:32:19;;;;;;;6.55;5.95;;;28.80;59.10;;;;;;5027653;28;20057;-61
2021/07/25 00:34:45;;;;;;;6.07;5.25;;;28.80;59.00;;;;;;5027557;28;20050;-62
2021/07/25 00:37:11;;;;;;;6.43;5.38;;;28.80;59.00;;;;;;5027726;28;20092;-62
2021/07/25 00:39:37;;;;;;;5.43;5.10;;;28.80;59.00;;;;;;5027976;28;20089;-61
2021/07/25 00:42:04;;;;;;;5.63;5.18;;;28.80;59.10;;;;;;5027656;28;20577;-62
2021/07/25 00:44:30;;;;;;;5.78;5.28;;;28.80;59.00;;;;;;5027603;28;20561;-61
2021/07/25 00:47:00;;;;;;;6.68;5.78;;;28.80;59.00;;;;;;5027518;28;20128;-62
2021/07/25 00:49:28;;;;;;;5.38;4.97;;;28.80;59.10;;;;;;5040948;28;20083;-62
2021/07/25 00:51:55;;;;;;;5.55;5.15;;;28.80;59.10;;;;;;5040574;28;20061;-62
2021/07/25 00:54:22;;;;;;;5.40;5.05;;;28.80;59.00;;;;;;5027527;28;20111;-61
2021/07/25 00:56:48;;;;;;;5.60;5.22;;;28.80;59.00;;;;;;5027228;28;20256;-62
2021/07/25 00:59:14;;;;;;;6.28;5.10;;;28.80;59.00;;;;;;5027567;28;20187;-62
2021/07/25 01:01:40;;;;;;;5.68;5.28;;;28.80;58.90;;;;;;5027857;28;20557;-61
2021/07/25 01:04:25;;;;;;;5.25;4.68;;;28.80;59.00;;;;;;5034039;28;20072;-62
2021/07/25 01:07:01;;;;;;;5.68;5.15;;;28.80;58.90;;;;;;5031080;28;20227;-61
2021/07/25 01:09:58;;;;;;;5.65;5.15;;;28.80;59.10;;;;;;5030924;28;20132;-61
2021/07/25 01:12:31;;;;;;;7.13;5.20;;;28.80;59.20;;;;;;5031080;28;20061;-62
2021/07/25 01:14:59;;;;;;;6.50;5.28;;;28.80;59.00;;;;;;5030977;28;20075;-61
2021/07/25 01:17:26;;;;;;;5.82;5.30;;;28.80;58.90;;;;;;5030829;28;20136;-62
2021/07/25 01:19:54;;;;;;;6.30;5.38;;;28.80;59.00;;;;;;5030764;28;20064;-62
2021/07/25 01:22:20;;;;;;;5.43;4.93;;;28.80;58.90;;;;;;5031008;28;20058;-62
2021/07/25 01:24:47;;;;;;;5.47;5.10;;;28.80;59.00;;;;;;5030805;28;20088;-62
2021/07/25 01:27:38;;;;;;;5.57;5.07;;;28.80;59.00;;;;;;5030332;28;20053;-62
2021/07/25 01:30:08;;;;;;;5.25;4.85;;;28.80;59.20;;;;;;5030315;28;20516;-61
2021/07/25 01:32:35;;;;;;;7.68;5.28;;;28.80;59.00;;;;;;5030560;28;20057;-61
2021/07/25 01:35:03;;;;;;;6.13;5.50;;;28.80;59.00;;;;;;5030493;28;20068;-62
2021/07/25 01:37:30;;;;;;;5.72;4.85;;;28.80;59.00;;;;;;5037695;28;20164;-61
2021/07/25 01:39:57;;;;;;;6.15;5.03;;;28.80;59.00;;;;;;5050331;28;20064;-62
2021/07/25 01:42:41;;;;;;;6.43;5.75;;;28.80;59.00;;;;;;5050194;28;20067;-61
2021/07/25 01:45:08;;;;;;;6.45;5.85;;;28.80;59.30;;;;;;5050333;28;20136;-61
2021/07/25 01:47:35;;;;;;;5.40;5.00;;;28.80;58.90;;;;;;5050154;28;20056;-61
2021/07/25 01:50:01;;;;;;;6.72;5.40;;;28.80;59.00;;;;;;5050288;28;20143;-62
2021/07/25 01:52:27;;;;;;;5.38;5.00;;;28.80;59.00;;;;;;5038514;28;20553;-62
2021/07/25 01:54:53;;;;;;;6.38;5.22;;;28.80;59.10;;;;;;5030251;28;20135;-62
2021/07/25 01:57:19;;;;;;;5.38;4.95;;;28.80;59.10;;;;;;5030103;28;20065;-61
2021/07/25 01:59:45;;;;;;;6.13;5.32;;;28.90;59.10;;;;;;5029941;28;20136;-62
2021/07/25 02:02:11;;;;;;;5.60;5.10;;;28.80;59.00;;;;;;5032726;28;20141;-62
2021/07/25 02:04:37;;;;;;;4.95;4.57;;;28.80;59.10;;;;;;5031345;28;20045;-62
2021/07/25 02:07:05;;;;;;;6.38;5.78;;;28.80;58.90;;;;;;5030042;28;20537;-61
2021/07/25 02:09:35;;;;;;;5.38;4.97;;;28.80;58.90;;;;;;5030045;28;20461;-61
2021/07/25 02:12:03;;;;;;;5.90;5.38;;;28.80;58.90;;;;;;5029741;28;20500;-61
2021/07/25 02:14:30;;;;;;;6.22;5.63;;;28.80;58.80;;;;;;5029842;28;20057;-61
2021/07/25 02:16:57;;;;;;;5.85;5.45;;;28.80;58.70;;;;;;5028956;28;20539;-61
2021/07/25 02:19:23;;;;;;;6.38;5.63;;;28.80;58.70;;;;;;5029808;28;20088;-61
2021/07/25 02:21:49;;;;;;;5.72;5.32;;;28.80;58.60;;;;;;5029513;28;20100;-61
2021/07/25 02:24:15;;;;;;;5.57;5.15;;;28.80;58.70;;;;;;5029337;28;20081;-62
2021/07/25 02:26:42;;;;;;;6.13;5.32;;;28.80;59.20;;;;;;5029736;28;20060;-61
2021/07/25 02:29:08;;;;;;;5.70;5.18;;;28.80;58.60;;;;;;5029449;28;20140;-61
2021/07/25 02:31:34;;;;;;;5.28;4.88;;;28.80;58.70;;;;;;5029633;28;20151;-61
2021/07/25 02:33:59;;;;;;;6.03;5.43;;;28.80;58.80;;;;;;5029461;28;20053;-61
2021/07/25 02:36:25;;;;;;;5.43;5.03;;;28.80;58.80;;;;;;5029580;28;20141;-62
2021/07/25 02:38:51;;;;;;;5.63;5.13;;;28.80;58.90;;;;;;5035765;28;20171;-61
2021/07/25 02:41:17;;;;;;;5.50;5.00;;;28.80;58.80;;;;;;5036083;28;20057;-62
2021/07/25 02:43:43;;;;;;;5.88;5.38;;;28.80;58.80;;;;;;5028918;28;20092;-62
2021/07/25 02:46:09;;;;;;;4.82;4.43;;;28.80;58.80;;;;;;5029185;28;20092;-61
2021/07/25 02:48:35;;;;;;;4.93;4.53;;;28.80;58.80;;;;;;5035503;28;20057;-62
2021/07/25 02:51:01;;;;;;;5.28;4.93;;;28.80;58.80;;;;;;5044407;28;20111;-61
2021/07/25 02:53:27;;;;;;;5.20;4.78;;;28.80;58.70;;;;;;5049132;28;20170;-61
2021/07/25 02:55:54;;;;;;;5.45;5.03;;;28.80;58.60;;;;;;5048882;28;20068;-61
2021/07/25 02:58:20;;;;;;;6.47;4.85;;;28.80;58.70;;;;;;5048838;28;20354;-61
2021/07/25 03:00:46;;;;;;;6.07;5.57;;;28.80;58.60;;;;;;5048645;28;20513;-62
2021/07/25 03:03:13;;;;;;;8.02;5.80;;;28.80;58.60;;;;;;5042449;28;20430;-61
2021/07/25 03:05:39;;;;;;;5.80;5.30;;;28.80;58.60;;;;;;5028727;28;20144;-62
2021/07/25 03:08:05;;;;;;;6.80;5.43;;;28.80;58.70;;;;;;5028629;28;20148;-61
2021/07/25 03:10:31;;;;;;;5.70;5.20;;;28.80;58.80;;;;;;5029013;28;20103;-62
2021/07/25 03:12:57;;;;;;;4.88;4.55;;;28.80;58.70;;;;;;5028617;28;20144;-61
2021/07/25 03:15:23;;;;;;;4.80;4.50;;;28.80;58.70;;;;;;5028720;28;20151;-61
2021/07/25 03:17:52;;;;;;;5.47;5.00;;;28.80;59.00;;;;;;5028522;28;20057;-61
2021/07/25 03:20:19;;;;;;;6.00;5.40;;;28.80;58.80;;;;;;5028377;28;20140;-61
2021/07/25 03:22:45;;;;;;;7.30;5.18;;;28.80;58.70;;;;;;5028598;28;20061;-62
2021/07/25 03:25:12;;;;;;;4.93;4.45;;;28.80;58.70;;;;;;5028558;28;20134;-61
2021/07/25 03:27:38;;;;;;;6.18;5.57;;;28.80;58.70;;;;;;5027648;28;20071;-61
2021/07/25 03:30:05;;;;;;;5.93;5.30;;;28.80;58.60;;;;;;5028174;28;20136;-62
2021/07/25 03:32:31;;;;;;;6.45;5.10;;;28.80;59.20;;;;;;5028577;28;20131;-61
2021/07/25 03:34:57;;;;;;;5.32;4.93;;;28.80;58.60;;;;;;5028271;28;20111;-62
2021/07/25 03:37:23;;;;;;;5.35;4.85;;;28.80;58.60;;;;;;5028118;28;20531;-62
2021/07/25 03:39:53;;;;;;;6.32;5.07;;;28.80;58.60;;;;;;5028315;28;20468;-62
2021/07/25 03:42:19;;;;;;;6.00;5.40;;;28.80;58.60;;;;;;5028298;28;20100;-62
2021/07/25 03:44:45;;;;;;;5.15;4.85;;;28.80;58.60;;;;;;5027970;28;20054;-62
2021/07/25 03:47:14;;;;;;;5.28;4.88;;;28.80;58.70;;;;;;5028075;28;20053;-62
2021/07/25 03:49:40;;;;;;;6.68;5.55;;;28.80;58.70;;;;;;5043675;28;20136;-61
2021/07/25 03:52:07;;;;;;;7.25;4.90;;;28.80;58.60;;;;;;5039594;28;20057;-61
2021/07/25 03:54:34;;;;;;;5.72;4.85;;;28.80;59.30;;;;;;5043638;28;20083;-61
2021/07/25 03:57:00;;;;;;;5.45;5.05;;;28.80;58.70;;;;;;5047679;28;20152;-63
2021/07/25 03:59:29;;;;;;;5.38;4.93;;;28.80;58.70;;;;;;5047705;28;20135;-61
2021/07/25 04:01:55;;;;;;;5.60;5.10;;;28.80;58.80;;;;;;5047794;28;20159;-62
2021/07/25 04:04:21;;;;;;;7.05;6.03;;;28.80;58.70;;;;;;5032048;28;20136;-62
2021/07/25 04:06:47;;;;;;;5.25;4.75;;;28.80;58.70;;;;;;5028013;28;20179;-61
2021/07/25 04:09:13;;;;;;;4.80;4.50;;;28.80;58.80;;;;;;5027650;28;20410;-61
2021/07/25 04:11:39;;;;;;;5.32;4.93;;;28.80;58.70;;;;;;5028276;28;20135;-61
2021/07/25 04:14:05;;;;;;;5.90;5.45;;;28.80;58.80;;;;;;5028001;28;20597;-61
2021/07/25 04:16:31;;;;;;;5.28;4.80;;;28.80;58.70;;;;;;5028237;28;20283;-61
2021/07/25 04:18:57;;;;;;;5.22;4.82;;;28.80;58.80;;;;;;5027593;28;20159;-61
2021/07/25 04:21:23;;;;;;;6.20;5.30;;;28.80;58.80;;;;;;5027989;28;20485;-61
2021/07/25 04:23:49;;;;;;;4.80;4.40;;;28.80;58.90;;;;;;5027933;28;20529;-62
2021/07/25 04:26:15;;;;;;;5.80;5.18;;;28.80;58.90;;;;;;5027837;28;20107;-62
2021/07/25 04:28:42;;;;;;;4.75;4.45;;;28.80;59.00;;;;;;5027701;28;20053;-62
2021/07/25 04:31:08;;;;;;;5.63;5.20;;;28.80;59.10;;;;;;5027883;28;20057;-62
2021/07/25 04:33:34;;;;;;;5.20;4.72;;;28.80;59.50;;;;;;5027894;28;20061;-62
2021/07/25 04:36:10;;;;;;;5.75;5.03;;;28.80;59.20;;;;;;5027736;28;20412;-62
2021/07/25 04:38:36;;;;;;;5.18;4.78;;;28.80;59.20;;;;;;5028525;28;20128;-61
2021/07/25 04:41:08;;;;;;;5.43;5.00;;;28.80;59.20;;;;;;5031351;28;20049;-61
2021/07/25 04:43:36;;;;;;;5.10;4.75;;;28.80;59.40;;;;;;5031549;28;20467;-62
2021/07/25 04:46:29;;;;;;;6.05;5.20;;;28.80;59.40;;;;;;5031041;28;20157;-62
2021/07/25 04:49:21;;;;;;;5.00;4.60;;;28.70;59.70;;;;;;5040788;28;20106;-62
2021/07/25 04:51:51;;;;;;;5.85;5.35;;;28.80;59.50;;;;;;5033550;28;20132;-62
2021/07/25 04:54:18;;;;;;;5.72;5.22;;;28.70;59.50;;;;;;5031235;28;20107;-62
2021/07/25 04:57:01;;;;;;;5.32;4.93;;;28.80;59.50;;;;;;5038469;28;20048;-62
2021/07/25 04:59:49;;;;;;;5.57;5.13;;;28.70;59.50;;;;;;5051044;28;20104;-62
2021/07/25 05:02:17;;;;;;;6.00;5.50;;;28.70;59.40;;;;;;5050960;28;20059;-61
2021/07/25 05:04:47;;;;;;;5.85;5.35;;;28.70;59.40;;;;;;5031856;28;20154;-62
2021/07/25 05:07:14;;;;;;;6.10;5.55;;;28.80;59.40;;;;;;5031038;28;20057;-61
2021/07/25 05:09:41;;;;;;;5.78;5.18;;;28.80;59.40;;;;;;5031403;28;20057;-61
2021/07/25 05:12:46;;;;;;;5.65;5.15;;;28.80;59.60;;;;;;5031076;28;20143;-61
2021/07/25 05:15:12;;;;;;;5.57;5.13;;;28.80;59.90;;;;;;5028965;28;20058;-61
2021/07/25 05:17:43;;;;;;;5.63;5.13;;;28.80;59.60;;;;;;5030707;28;20547;-61
2021/07/25 05:20:16;;;;;;;5.68;5.15;;;28.80;59.90;;;;;;5031246;28;20053;-62
2021/07/25 05:23:17;;;;;;;5.43;5.03;;;28.80;59.90;;;;;;5037459;28;20092;-61
2021/07/25 05:25:49;;;;;;;5.40;5.00;;;28.80;60.10;;;;;;5050329;28;20057;-62
2021/07/25 05:28:19;;;;;;;4.85;4.45;;;28.80;60.00;;;;;;5050515;28;20492;-61
2021/07/25 05:30:56;;;;;;;4.78;4.40;;;28.80;60.20;;;;;;5050649;28;20057;-62
2021/07/25 05:33:23;;;;;;;6.10;5.60;;;28.80;60.80;;;;;;5048910;28;20136;-62
2021/07/25 05:35:50;;;;;;;5.30;4.88;;;28.80;60.50;;;;;;5050662;28;20076;-62
2021/07/25 05:38:18;;;;;;;5.50;5.00;;;28.80;60.40;;;;;;5050207;28;20056;-61
2021/07/25 05:40:44;;;;;;;5.30;4.90;;;28.80;60.70;;;;;;5050622;28;20163;-61
2021/07/25 05:43:10;;;;;;;5.13;4.72;;;28.80;61.00;;;;;;5050453;28;20060;-62
2021/07/25 05:45:36;;;;;;;5.28;4.82;;;28.80;60.80;;;;;;5050676;28;20064;-62
2021/07/25 05:48:03;;;;;;;6.93;5.15;;;28.80;61.00;;;;;;5050037;28;20132;-61
2021/07/25 05:50:29;;;;;;;5.53;5.03;;;28.80;61.10;;;;;;5049193;28;20060;-61
2021/07/25 05:52:57;;;;;;;5.93;5.50;;;28.80;61.50;;;;;;5034676;28;20049;-62
2021/07/25 05:55:25;;;;;;;9.40;5.80;;;28.80;61.10;;;;;;5030104;28;20144;-61
2021/07/25 05:57:51;;;;;;;5.47;5.15;;;28.80;61.30;;;;;;5030160;28;20417;-62
2021/07/25 06:00:19;;;;;;;6.75;6.13;;;28.80;61.10;;;;;;5029939;28;20060;-61
2021/07/25 06:02:49;;;;;;;4.97;4.63;;;28.80;61.50;;;;;;5034447;28;20133;-62
2021/07/25 06:05:15;;;;;;;5.45;5.05;;;28.80;62.00;;;;;;5029807;28;20088;-61
2021/07/25 06:07:41;;;;;;;6.60;6.00;;;28.80;61.40;;;;;;5030114;28;20054;-61
2021/07/25 06:10:08;;;;;;;6.22;5.55;;;28.80;61.80;;;;;;5029997;28;20495;-61
2021/07/25 06:12:36;;;;;;;5.60;5.10;;;28.80;61.50;;;;;;5029792;28;20053;-62
2021/07/25 06:15:04;;;;;;;6.07;5.57;;;28.80;61.60;;;;;;5029924;28;20061;-62
2021/07/25 06:17:31;;;;;;;5.40;4.93;;;28.80;61.90;;;;;;5029494;28;20548;-62
2021/07/25 06:19:57;;;;;;;5.65;5.15;;;28.80;62.50;;;;;;5029956;28;20057;-62
2021/07/25 06:22:23;;;;;;;5.75;5.25;;;28.80;62.00;;;;;;5029718;28;20057;-62
2021/07/25 06:24:49;;;;;;;5.43;4.70;;;28.80;61.80;;;;;;5029564;28;20139;-62
2021/07/25 06:27:15;;;;;;;5.15;4.82;;;28.80;61.80;;;;;;5029723;28;20528;-61
2021/07/25 06:29:41;;;;;;;5.78;4.90;;;28.80;62.30;;;;;;5029881;28;20128;-62
2021/07/25 06:32:10;;;;;;;5.38;4.88;;;28.80;62.70;;;;;;5029856;28;20116;-61
2021/07/25 06:34:36;;;;;;;7.78;5.13;;;28.80;62.80;;;;;;5029284;28;20060;-62
2021/07/25 06:37:02;;;;;;;5.93;4.53;;;28.80;62.50;;;;;;5029512;28;20049;-61
2021/07/25 06:39:28;;;;;;;5.63;5.13;;;28.80;62.80;;;;;;5029360;28;20183;-62
2021/07/25 06:41:54;;;;;;;5.90;5.28;;;28.80;62.40;;;;;;5029291;28;20152;-61
2021/07/25 06:44:20;;;;;;;5.22;4.70;;;28.80;62.30;;;;;;5029038;28;20053;-61
2021/07/25 06:46:46;;;;;;;6.95;4.68;;;28.80;62.00;;;;;;5029335;28;20141;-61
2021/07/25 06:49:14;;;;;;;5.60;5.20;;;28.80;62.60;;;;;;5040494;28;20057;-62
2021/07/25 06:51:40;;;;;;;5.03;4.63;;;28.80;62.60;;;;;;5044357;28;20061;-61
2021/07/25 06:54:06;;;;;;;7.45;5.10;;;28.80;62.90;;;;;;5029332;28;20137;-62
2021/07/25 06:56:32;;;;;;;4.65;4.45;;;28.80;63.20;;;;;;5028897;28;20109;-61
2021/07/25 06:58:58;;;;;;;6.78;5.43;;;28.80;63.30;;;;;;5027920;28;20057;-61
2021/07/25 07:01:27;;;;;;;4.88;4.47;;;28.80;62.60;;;;;;5028682;28;20450;-61
2021/07/25 07:03:53;;;;;;;5.10;4.70;;;28.80;62.40;;;;;;5033082;28;20079;-62
2021/07/25 07:06:19;;;;;;;4.60;4.28;;;28.80;63.10;;;;;;5028517;28;20652;-61
2021/07/25 07:08:45;;;;;;;6.50;4.97;;;28.80;62.50;;;;;;5029100;28;20153;-61
2021/07/25 07:11:11;;;;;;;5.72;4.60;;;28.80;62.40;;;;;;5028885;28;20660;-61
2021/07/25 07:13:37;;;;;;;5.22;4.72;;;28.80;63.00;;;;;;5028954;28;20087;-61
2021/07/25 07:16:03;;;;;;;5.63;5.22;;;28.80;62.70;;;;;;5028252;28;20576;-61
2021/07/25 07:18:29;;;;;;;5.10;4.70;;;28.80;62.30;;;;;;5028465;28;20467;-62
2021/07/25 07:20:55;;;;;;;5.07;4.75;;;28.80;62.00;;;;;;5028626;28;20108;-62
2021/07/25 07:23:24;;;;;;;5.22;4.82;;;28.80;61.70;;;;;;5028556;28;20132;-61
2021/07/25 07:25:52;;;;;;;6.28;5.32;;;28.80;62.30;;;;;;5028283;28;20069;-61
2021/07/25 07:28:20;;;;;;;4.75;4.45;;;28.80;63.00;;;;;;5028625;28;20476;-62
2021/07/25 07:30:51;;;;;;;5.60;4.75;;;28.80;62.90;;;;;;5034968;28;20084;-61
2021/07/25 07:33:21;;;;;;;6.25;5.65;;;28.80;62.80;;;;;;5048409;28;20144;-61
2021/07/25 07:35:48;;;;;;;5.20;4.75;;;28.80;62.70;;;;;;5048327;28;20131;-61
2021/07/25 07:38:14;;;;;;;5.53;4.35;;;28.80;62.90;;;;;;5048224;28;20107;-61
2021/07/25 07:40:43;;;;;;;5.63;5.13;;;28.80;62.90;;;;;;5048415;28;20127;-61
2021/07/25 07:43:11;;;;;;;5.00;4.63;;;28.80;62.00;;;;;;5048408;28;20710;-61
2021/07/25 07:45:38;;;;;;;7.50;5.78;;;28.80;62.80;;;;;;5048214;28;20509;-62
2021/07/25 07:48:05;;;;;;;5.68;4.78;;;28.80;62.30;;;;;;5047939;28;20063;-61
2021/07/25 07:50:31;;;;;;;5.97;5.40;;;28.80;61.80;;;;;;5047959;28;20368;-61
2021/07/25 07:52:57;;;;;;;6.30;5.63;;;28.80;62.10;;;;;;5032341;28;20552;-61
2021/07/25 07:55:24;;;;;;;5.45;4.95;;;28.80;61.70;;;;;;5029124;28;20076;-62
2021/07/25 07:57:50;;;;;;;5.07;4.60;;;28.80;61.90;;;;;;5027059;28;20215;-62
2021/07/25 08:00:16;;;;;;;6.28;5.78;;;28.80;61.70;;;;;;5028246;28;20057;-61
2021/07/25 08:02:43;;;;;;;5.97;5.47;;;28.70;61.50;;;;;;5032257;28;20085;-61
2021/07/25 08:05:10;;;;;;;5.25;4.85;;;28.70;61.80;;;;;;5028135;28;20140;-64
2021/07/25 08:07:37;;;;;;;5.35;4.97;;;28.70;61.60;;;;;;5028118;28;20057;-60
2021/07/25 08:10:03;;;;;;;4.70;4.47;;;28.80;61.70;;;;;;5028244;28;20059;-61
2021/07/25 08:12:29;;;;;;;5.20;4.80;;;28.80;62.00;;;;;;5028099;28;20116;-61
2021/07/25 08:14:55;;;;;;;4.78;4.40;;;28.70;62.20;;;;;;5041183;28;20102;-61
2021/07/25 08:17:21;;;;;;;5.43;4.93;;;28.80;62.60;;;;;;5036400;28;20061;-60
2021/07/25 08:19:51;;;;;;;5.90;5.30;;;28.70;62.20;;;;;;5032234;28;20145;-61
2021/07/25 08:22:17;;;;;;;7.30;5.07;;;28.80;62.40;;;;;;5032043;28;20469;-61
2021/07/25 08:24:44;;;;;;;5.50;4.65;;;28.70;62.00;;;;;;5032031;28;20054;-62
2021/07/25 08:27:10;;;;;;;5.80;5.38;;;28.70;62.10;;;;;;5032194;28;20148;-62
2021/07/25 08:29:37;;;;;;;6.15;5.55;;;28.70;62.10;;;;;;5032104;28;20056;-61
2021/07/25 08:32:04;;;;;;;6.40;5.90;;;28.80;62.00;;;;;;5031784;28;20064;-61
2021/07/25 08:34:30;;;;;;;8.07;5.68;;;28.70;61.70;;;;;;5031801;28;20527;-62
2021/07/25 08:36:56;;;;;;;6.65;6.13;;;28.70;61.60;;;;;;5034536;28;20163;-62
2021/07/25 08:39:22;;;;;;;6.22;5.63;;;28.70;61.30;;;;;;5042302;28;20748;-62
2021/07/25 08:42:02;;;;;;;7.40;6.18;;;28.70;61.30;;;;;;5031672;28;20136;-61
2021/07/25 08:44:50;;;;;;;5.63;5.22;;;28.70;61.70;;;;;;5031606;28;20091;-61
2021/07/25 08:47:28;;;;;;;8.15;6.10;;;28.70;62.20;;;;;;5038999;28;20524;-61
2021/07/25 08:50:04;;;;;;;7.18;6.47;;;28.70;61.60;;;;;;5051516;28;20525;-62
2021/07/25 08:52:32;;;;;;;7.93;7.13;;;28.70;61.30;;;;;;5039778;28;20148;-61
2021/07/25 08:55:01;;;;;;;7.05;6.45;;;28.70;61.10;;;;;;5031679;28;20132;-61
2021/07/25 08:57:30;;;;;;;7.30;6.60;;;28.70;61.00;;;;;;5031287;28;20056;-62
2021/07/25 08:59:57;;;;;;;7.13;6.53;;;28.70;60.90;;;;;;5031495;28;20187;-62
2021/07/25 09:02:28;;;;;;;8.57;6.75;;;28.70;60.90;;;;;;5035680;28;20092;-62
2021/07/25 09:04:56;;;;;;;7.25;6.63;;;28.60;60.90;;;;;;5031637;28;20096;-61
2021/07/25 09:07:24;;;;;;;7.13;6.53;;;28.60;60.80;;;;;;5031194;28;20099;-62
2021/07/25 09:09:56;;;;;;;7.05;6.45;;;28.60;60.90;;;;;;5031148;28;20534;-61
2021/07/25 09:12:25;;;;;;;6.60;6.00;;;28.60;60.90;;;;;;5030899;28;20531;-62
2021/07/25 09:14:57;;;;;;;11.38;7.53;;;28.60;60.90;;;;;;5031080;28;20057;-62
2021/07/25 09:17:24;;;;;;;7.32;6.63;;;28.60;60.80;;;;;;5030713;28;20072;-61
2021/07/25 09:20:17;;;;;;;7.88;6.90;;;28.60;60.80;;;;;;5040592;28;20247;-62
2021/07/25 09:22:49;;;;;;;7.43;6.70;;;28.60;60.90;;;;;;5031204;28;20062;-62
2021/07/25 09:25:24;;;;;;;7.25;6.55;;;28.60;61.10;;;;;;5044081;28;20484;-61
2021/07/25 09:27:56;;;;;;;6.40;5.85;;;28.60;61.40;;;;;;5030945;28;20053;-61
2021/07/25 09:30:24;;;;;;;8.40;6.53;;;28.60;62.10;;;;;;5030828;28;20183;-61
2021/07/25 09:32:50;;;;;;;8.15;7.35;;;28.60;61.50;;;;;;5030766;28;20689;-61
2021/07/25 09:35:25;;;;;;;7.85;7.05;;;28.50;61.20;;;;;;5030661;28;20080;-61
2021/07/25 09:37:56;;;;;;;8.85;7.72;;;28.40;61.60;;;;;;5030596;28;20163;-61
2021/07/25 09:40:31;;;;;;;8.13;7.32;;;28.30;62.00;;;;;;5030723;28;20083;-61
2021/07/25 09:43:23;;;;;;;14.30;8.25;;;28.30;61.30;;;;;;5030767;28;20132;-61
2021/07/25 09:45:57;;;;;;;14.75;7.78;;;28.30;61.20;;;;;;5039717;28;20063;-61
2021/07/25 09:48:27;;;;;;;17.88;8.57;;;28.30;61.30;;;;;;5050063;28;20491;-61
2021/07/25 09:50:56;;;;;;;10.18;7.47;;;28.30;61.20;;;;;;5050386;28;20103;-61
2021/07/25 09:53:22;;;;;;;11.07;6.85;;;28.30;61.60;;;;;;5036746;28;20053;-61
2021/07/25 09:55:49;;;;;;;13.35;7.53;;;28.30;61.80;;;;;;5050415;28;20136;-62
2021/07/25 09:58:16;;;;;;;12.93;7.22;;;28.30;61.10;;;;;;5031200;28;20057;-61
2021/07/25 10:00:44;;;;;;;10.32;7.38;;;28.30;61.50;;;;;;5030617;28;20061;-61
2021/07/25 10:03:23;;;;;;;15.45;8.18;;;28.30;61.20;;;;;;5035125;28;20191;-62
2021/07/25 10:05:52;;;;;;;14.63;8.80;;;28.30;61.70;;;;;;5030318;28;20072;-61
2021/07/25 10:08:21;;;;;;;11.35;7.38;;;28.30;61.00;;;;;;5030240;28;20081;-61
2021/07/25 10:10:48;;;;;;;11.23;7.53;;;28.30;61.20;;;;;;5045351;28;20505;-62
2021/07/25 10:13:22;;;;;;;10.90;6.78;;;28.30;61.00;;;;;;5041185;28;20059;-62
2021/07/25 10:15:58;;;;;;;14.82;7.68;;;28.30;60.60;;;;;;5033202;28;20167;-61
2021/07/25 10:18:26;;;;;;;8.73;6.60;;;28.30;60.80;;;;;;5049896;28;20059;-61
2021/07/25 10:20:57;;;;;;;10.63;6.38;;;28.30;60.70;;;;;;5031698;28;20140;-61
2021/07/25 10:23:32;;;;;;;12.63;7.50;;;28.30;60.90;;;;;;5029835;28;20149;-62
2021/07/25 10:26:02;;;;;;;11.02;7.00;;;28.30;60.60;;;;;;5036863;28;20092;-62
2021/07/25 10:28:31;;;;;;;11.80;6.88;;;28.30;60.80;;;;;;5049514;28;20057;-62
2021/07/25 10:31:02;;;;;;;8.80;6.47;;;28.30;60.60;;;;;;5049647;28;20106;-61
2021/07/25 10:33:29;;;;;;;8.20;6.90;;;28.30;60.80;;;;;;5049456;28;20111;-61
2021/07/25 10:35:59;;;;;;;8.15;6.60;;;28.30;60.40;;;;;;5049020;28;20084;-62
2021/07/25 10:38:24;;;;;;;7.38;6.57;;;28.30;60.40;;;;;;5048196;28;20049;-61
2021/07/25 10:40:52;;;;;;;9.02;7.45;;;28.30;60.60;;;;;;5049504;28;20136;-61
2021/07/25 10:43:23;;;;;;;10.43;6.88;;;28.30;60.10;;;;;;5049272;28;20463;-62
2021/07/25 10:46:11;;;;;;;7.63;6.43;;;28.30;60.50;;;;;;5047985;28;20103;-62
2021/07/25 10:48:37;;;;;;;10.40;6.32;;;28.30;61.00;;;;;;5048021;28;20581;-62
2021/07/25 10:51:11;;;;;;;10.15;6.65;;;28.30;61.20;;;;;;5049565;28;20163;-61
2021/07/25 10:53:37;;;;;;;10.25;6.25;;;28.30;60.70;;;;;;5029572;28;20485;-61
2021/07/25 10:56:03;;;;;;;8.80;6.10;;;28.30;60.60;;;;;;5029104;28;20548;-61
2021/07/25 10:58:53;;;;;;;9.07;6.22;;;28.30;60.80;;;;;;5029366;28;20540;-61
2021/07/25 11:01:41;;;;;;;7.10;6.10;;;28.30;60.30;;;;;;5033507;28;20158;-61
2021/07/25 11:04:07;;;;;;;7.82;6.00;;;28.40;61.70;;;;;;5035108;28;20049;-61
2021/07/25 11:06:33;;;;;;;6.82;6.20;;;28.40;61.10;;;;;;5028924;28;20089;-62
2021/07/25 11:08:59;;;;;;;7.60;5.88;;;28.40;60.50;;;;;;5028644;28;20519;-61
2021/07/25 11:11:26;;;;;;;8.75;5.93;;;28.40;60.80;;;;;;5028905;28;20088;-61
2021/07/25 11:13:53;;;;;;;9.00;6.20;;;28.40;60.80;;;;;;5028684;28;20532;-62
2021/07/25 11:16:28;;;;;;;7.32;6.57;;;28.40;60.40;;;;;;5036787;28;20507;-62
2021/07/25 11:18:55;;;;;;;8.57;6.80;;;28.40;60.50;;;;;;5046180;28;20165;-61
2021/07/25 11:21:36;;;;;;;9.30;6.68;;;28.30;60.20;;;;;;5028924;28;20056;-61
2021/07/25 11:24:22;;;;;;;7.03;6.35;;;28.40;60.50;;;;;;5028490;28;20073;-61
2021/07/25 11:26:59;;;;;;;8.73;6.50;;;28.40;59.90;;;;;;5028530;28;20127;-62
2021/07/25 11:29:35;;;;;;;8.75;6.65;;;28.30;60.10;;;;;;5028512;28;20153;-62
2021/07/25 11:32:03;;;;;;;6.13;5.53;;;28.30;59.90;;;;;;5028821;28;20119;-62
2021/07/25 11:34:36;;;;;;;6.80;6.20;;;28.30;60.60;;;;;;5028976;28;20068;-61
2021/07/25 11:37:08;;;;;;;7.90;6.10;;;28.40;61.00;;;;;;5028670;28;20061;-61
2021/07/25 11:39:35;;;;;;;12.93;6.35;;;28.30;60.70;;;;;;5028956;28;20108;-61
2021/07/25 11:42:05;;;;;;;8.18;6.03;;;28.40;60.10;;;;;;5028640;28;20724;-61
2021/07/25 11:44:33;;;;;;;8.07;6.00;;;28.40;59.80;;;;;;5028583;28;20460;-61
2021/07/25 11:47:04;;;;;;;6.25;5.72;;;28.40;60.20;;;;;;5027961;28;20088;-62
2021/07/25 11:49:38;;;;;;;9.70;6.68;;;28.40;59.80;;;;;;5041325;28;20062;-62
2021/07/25 11:52:08;;;;;;;7.00;6.30;;;28.40;59.80;;;;;;5039881;28;20081;-61
2021/07/25 11:54:42;;;;;;;7.00;6.25;;;28.40;59.80;;;;;;5028054;28;20061;-62
2021/07/25 11:57:24;;;;;;;8.75;6.18;;;28.30;59.90;;;;;;5028139;28;20085;-61
2021/07/25 12:00:03;;;;;;;6.95;6.30;;;28.40;59.90;;;;;;5034018;28;20057;-61
2021/07/25 12:02:38;;;;;;;6.93;6.28;;;28.40;59.80;;;;;;5037882;28;20579;-61
2021/07/25 12:05:05;;;;;;;7.03;6.28;;;28.30;60.20;;;;;;5027961;28;20049;-62
2021/07/25 12:07:33;;;;;;;6.53;6.10;;;28.30;59.90;;;;;;5028212;28;20061;-61
2021/07/25 12:09:59;;;;;;;8.38;5.90;;;28.40;60.00;;;;;;5027897;28;20061;-61
2021/07/25 12:12:29;;;;;;;6.78;6.18;;;28.30;59.70;;;;;;5028116;28;20064;-62
2021/07/25 12:15:00;;;;;;;6.45;5.95;;;28.40;60.40;;;;;;5038010;28;20053;-61
2021/07/25 12:17:38;;;;;;;8.70;6.73;;;28.40;60.10;;;;;;5030846;28;20140;-63
2021/07/25 12:20:29;;;;;;;7.03;6.53;;;28.30;59.60;;;;;;5028331;28;20136;-62
2021/07/25 12:23:04;;;;;;;7.30;6.60;;;28.30;59.70;;;;;;5036524;28;20647;-62
2021/07/25 12:25:55;;;;;;;8.80;7.00;;;28.30;59.70;;;;;;5048001;28;20053;-62
2021/07/25 12:28:25;;;;;;;7.00;6.32;;;28.30;59.60;;;;;;5034846;28;20128;-61
2021/07/25 12:30:57;;;;;;;7.45;6.75;;;28.30;59.60;;;;;;5028117;28;20092;-62
2021/07/25 12:33:31;;;;;;;7.25;6.53;;;28.30;59.70;;;;;;5028039;28;20057;-62
2021/07/25 12:36:10;;;;;;;8.90;6.22;;;28.30;59.50;;;;;;5028084;28;20053;-61
2021/07/25 12:38:36;;;;;;;7.75;6.95;;;28.30;59.50;;;;;;5028290;28;20123;-62
2021/07/25 12:41:03;;;;;;;6.45;5.95;;;28.30;59.60;;;;;;5027787;28;20053;-61
2021/07/25 12:43:30;;;;;;;7.55;6.85;;;28.30;59.60;;;;;;5027916;28;20064;-62
2021/07/25 12:45:58;;;;;;;7.68;6.97;;;28.30;59.60;;;;;;5027473;28;20064;-62
2021/07/25 12:48:28;;;;;;;7.38;6.57;;;28.30;59.60;;;;;;5032969;28;20057;-62
2021/07/25 12:51:17;;;;;;;6.60;6.15;;;28.30;59.60;;;;;;5048459;28;20049;-61
2021/07/25 12:54:03;;;;;;;7.25;6.75;;;28.30;59.50;;;;;;5027813;28;20198;-61
2021/07/25 12:56:31;;;;;;;7.18;6.50;;;28.30;59.60;;;;;;5027753;28;20057;-61